Terminal Aerodrome Forecast
Issued by NWS Bismarck, ND

Home | Current Version | Previous Version | Graphics & Text | Print | Product List | Glossary On
Versions: 1 2 3 4 5 6 7 8 9 10 11 12 13 14 15 16 17
000
FTUS43 KBIS 232300
TAFBIS
TAF
KBIS 232339Z 2400/2424 32009KT P6SM OVC013
     FM241000 19005KT P6SM SCT020 SCT070
     FM241800 15006KT P6SM OVC050=

USA.gov is the U.S. government's official web portal to all federal, state and local government web resources and services.